sensor_id;sensor_type;location;lat;lon;timestamp;P1;durP1;ratioP1;P2;durP2;ratioP2
12774;SDS011;6451;42.630;23.382;2024-03-06T00:01:18;29.67;;;20.27;;
12774;SDS011;6451;42.630;23.382;2024-03-06T00:03:47;28.83;;;20.87;;
12774;SDS011;6451;42.630;23.382;2024-03-06T00:06:14;29.40;;;20.37;;
12774;SDS011;6451;42.630;23.382;2024-03-06T00:08:43;29.63;;;20.07;;
12774;SDS011;6451;42.630;23.382;2024-03-06T00:11:12;32.57;;;20.50;;
12774;SDS011;6451;42.630;23.382;2024-03-06T00:13:42;29.47;;;21.20;;
12774;SDS011;6451;42.630;23.382;2024-03-06T00:16:12;31.63;;;21.67;;
12774;SDS011;6451;42.630;23.382;2024-03-06T00:18:39;31.60;;;22.13;;
12774;SDS011;6451;42.630;23.382;2024-03-06T00:21:08;33.53;;;21.30;;
12774;SDS011;6451;42.630;23.382;2024-03-06T00:23:37;31.87;;;21.67;;
12774;SDS011;6451;42.630;23.382;2024-03-06T00:26:09;27.00;;;19.17;;
12774;SDS011;6451;42.630;23.382;2024-03-06T00:28:38;26.73;;;19.67;;
12774;SDS011;6451;42.630;23.382;2024-03-06T00:31:07;28.37;;;20.73;;
12774;SDS011;6451;42.630;23.382;2024-03-06T00:33:37;28.60;;;19.93;;
12774;SDS011;6451;42.630;23.382;2024-03-06T00:36:04;29.80;;;19.33;;
12774;SDS011;6451;42.630;23.382;2024-03-06T00:38:32;21.33;;;16.70;;
12774;SDS011;6451;42.630;23.382;2024-03-06T00:40:59;25.47;;;17.77;;
12774;SDS011;6451;42.630;23.382;2024-03-06T00:43:28;25.47;;;18.27;;
12774;SDS011;6451;42.630;23.382;2024-03-06T00:45:56;26.07;;;16.77;;
12774;SDS011;6451;42.630;23.382;2024-03-06T00:48:24;27.23;;;18.00;;
12774;SDS011;6451;42.630;23.382;2024-03-06T00:50:52;26.13;;;17.80;;
12774;SDS011;6451;42.630;23.382;2024-03-06T00:53:19;26.53;;;18.27;;
12774;SDS011;6451;42.630;23.382;2024-03-06T00:55:47;26.60;;;18.73;;
12774;SDS011;6451;42.630;23.382;2024-03-06T00:58:16;26.23;;;19.40;;
12774;SDS011;6451;42.630;23.382;2024-03-06T01:00:45;28.03;;;19.37;;
12774;SDS011;6451;42.630;23.382;2024-03-06T01:03:12;27.00;;;18.97;;
12774;SDS011;6451;42.630;23.382;2024-03-06T01:05:39;30.07;;;19.70;;
12774;SDS011;6451;42.630;23.382;2024-03-06T01:08:07;30.57;;;19.13;;
12774;SDS011;6451;42.630;23.382;2024-03-06T01:10:34;27.40;;;18.93;;
12774;SDS011;6451;42.630;23.382;2024-03-06T01:13:01;30.07;;;19.87;;
12774;SDS011;6451;42.630;23.382;2024-03-06T01:15:28;28.93;;;19.93;;
12774;SDS011;6451;42.630;23.382;2024-03-06T01:17:57;26.23;;;19.27;;
12774;SDS011;6451;42.630;23.382;2024-03-06T01:20:26;29.33;;;20.13;;
12774;SDS011;6451;42.630;23.382;2024-03-06T01:22:54;29.17;;;20.27;;
12774;SDS011;6451;42.630;23.382;2024-03-06T01:25:21;30.00;;;19.63;;
12774;SDS011;6451;42.630;23.382;2024-03-06T01:27:52;28.63;;;20.40;;
12774;SDS011;6451;42.630;23.382;2024-03-06T01:30:22;29.97;;;20.10;;
12774;SDS011;6451;42.630;23.382;2024-03-06T01:32:49;34.67;;;20.20;;
12774;SDS011;6451;42.630;23.382;2024-03-06T01:35:18;25.47;;;19.77;;
12774;SDS011;6451;42.630;23.382;2024-03-06T01:37:44;27.70;;;19.83;;
12774;SDS011;6451;42.630;23.382;2024-03-06T01:40:12;28.60;;;20.53;;
12774;SDS011;6451;42.630;23.382;2024-03-06T01:42:39;32.90;;;20.87;;
12774;SDS011;6451;42.630;23.382;2024-03-06T01:45:09;30.43;;;20.83;;
12774;SDS011;6451;42.630;23.382;2024-03-06T01:47:37;31.90;;;20.73;;
12774;SDS011;6451;42.630;23.382;2024-03-06T01:50:15;35.33;;;20.17;;
12774;SDS011;6451;42.630;23.382;2024-03-06T01:52:44;32.00;;;20.20;;
12774;SDS011;6451;42.630;23.382;2024-03-06T01:55:14;31.00;;;20.73;;
12774;SDS011;6451;42.630;23.382;2024-03-06T01:57:41;27.93;;;19.53;;
12774;SDS011;6451;42.630;23.382;2024-03-06T02:00:08;29.80;;;20.00;;
12774;SDS011;6451;42.630;23.382;2024-03-06T02:02:44;26.50;;;17.40;;
12774;SDS011;6451;42.630;23.382;2024-03-06T02:05:12;25.97;;;18.00;;
12774;SDS011;6451;42.630;23.382;2024-03-06T02:07:43;23.53;;;17.03;;
12774;SDS011;6451;42.630;23.382;2024-03-06T02:10:12;28.13;;;17.67;;
12774;SDS011;6451;42.630;23.382;2024-03-06T02:12:43;27.17;;;17.07;;
12774;SDS011;6451;42.630;23.382;2024-03-06T02:15:10;29.20;;;17.40;;
12774;SDS011;6451;42.630;23.382;2024-03-06T02:17:38;24.77;;;16.87;;
12774;SDS011;6451;42.630;23.382;2024-03-06T02:20:08;25.60;;;17.70;;
12774;SDS011;6451;42.630;23.382;2024-03-06T02:22:39;26.30;;;17.13;;
12774;SDS011;6451;42.630;23.382;2024-03-06T02:25:06;27.30;;;17.80;;
12774;SDS011;6451;42.630;23.382;2024-03-06T02:27:38;25.13;;;17.23;;
12774;SDS011;6451;42.630;23.382;2024-03-06T02:30:06;26.57;;;17.50;;
12774;SDS011;6451;42.630;23.382;2024-03-06T02:32:34;27.57;;;17.57;;
12774;SDS011;6451;42.630;23.382;2024-03-06T02:35:01;25.10;;;17.23;;
12774;SDS011;6451;42.630;23.382;2024-03-06T02:37:30;24.77;;;17.33;;
12774;SDS011;6451;42.630;23.382;2024-03-06T02:40:00;24.40;;;16.57;;
12774;SDS011;6451;42.630;23.382;2024-03-06T02:42:28;26.50;;;16.47;;
12774;SDS011;6451;42.630;23.382;2024-03-06T02:44:55;26.23;;;17.27;;
12774;SDS011;6451;42.630;23.382;2024-03-06T02:47:25;26.30;;;16.27;;
12774;SDS011;6451;42.630;23.382;2024-03-06T02:49:52;20.27;;;15.03;;
12774;SDS011;6451;42.630;23.382;2024-03-06T02:52:20;19.83;;;14.70;;
12774;SDS011;6451;42.630;23.382;2024-03-06T02:54:47;18.53;;;13.00;;
12774;SDS011;6451;42.630;23.382;2024-03-06T02:57:17;18.17;;;13.17;;
12774;SDS011;6451;42.630;23.382;2024-03-06T02:59:45;21.07;;;12.90;;
12774;SDS011;6451;42.630;23.382;2024-03-06T03:02:15;19.70;;;14.07;;
12774;SDS011;6451;42.630;23.382;2024-03-06T03:04:41;20.97;;;14.70;;
12774;SDS011;6451;42.630;23.382;2024-03-06T03:07:09;20.70;;;14.50;;
12774;SDS011;6451;42.630;23.382;2024-03-06T03:09:37;20.63;;;14.30;;
12774;SDS011;6451;42.630;23.382;2024-03-06T03:12:12;19.13;;;14.23;;
12774;SDS011;6451;42.630;23.382;2024-03-06T03:14:40;21.53;;;15.27;;
12774;SDS011;6451;42.630;23.382;2024-03-06T03:17:09;25.50;;;16.53;;
12774;SDS011;6451;42.630;23.382;2024-03-06T03:19:36;24.30;;;17.23;;
12774;SDS011;6451;42.630;23.382;2024-03-06T03:22:05;24.13;;;16.33;;
12774;SDS011;6451;42.630;23.382;2024-03-06T03:24:33;26.43;;;17.90;;
12774;SDS011;6451;42.630;23.382;2024-03-06T03:27:02;26.60;;;18.07;;
12774;SDS011;6451;42.630;23.382;2024-03-06T03:29:29;26.70;;;18.77;;
12774;SDS011;6451;42.630;23.382;2024-03-06T03:31:58;28.30;;;19.60;;
12774;SDS011;6451;42.630;23.382;2024-03-06T03:34:25;28.43;;;19.97;;
12774;SDS011;6451;42.630;23.382;2024-03-06T03:36:52;28.63;;;20.73;;
12774;SDS011;6451;42.630;23.382;2024-03-06T03:39:19;29.93;;;20.40;;
12774;SDS011;6451;42.630;23.382;2024-03-06T03:41:47;29.43;;;19.70;;
12774;SDS011;6451;42.630;23.382;2024-03-06T03:44:15;29.33;;;19.80;;
12774;SDS011;6451;42.630;23.382;2024-03-06T03:46:44;31.20;;;20.03;;
12774;SDS011;6451;42.630;23.382;2024-03-06T03:49:16;29.43;;;20.37;;
12774;SDS011;6451;42.630;23.382;2024-03-06T03:51:42;28.87;;;20.03;;
12774;SDS011;6451;42.630;23.382;2024-03-06T03:54:09;30.70;;;21.17;;
12774;SDS011;6451;42.630;23.382;2024-03-06T03:56:36;28.80;;;20.60;;
12774;SDS011;6451;42.630;23.382;2024-03-06T03:59:04;24.60;;;18.20;;
12774;SDS011;6451;42.630;23.382;2024-03-06T04:01:30;23.43;;;17.17;;
12774;SDS011;6451;42.630;23.382;2024-03-06T04:03:59;19.67;;;15.10;;
12774;SDS011;6451;42.630;23.382;2024-03-06T04:06:29;19.43;;;13.77;;
12774;SDS011;6451;42.630;23.382;2024-03-06T04:08:59;18.30;;;13.60;;
12774;SDS011;6451;42.630;23.382;2024-03-06T04:11:26;21.27;;;14.33;;
12774;SDS011;6451;42.630;23.382;2024-03-06T04:13:53;22.83;;;14.10;;
12774;SDS011;6451;42.630;23.382;2024-03-06T04:16:20;23.10;;;15.07;;
12774;SDS011;6451;42.630;23.382;2024-03-06T04:18:47;21.67;;;13.80;;
12774;SDS011;6451;42.630;23.382;2024-03-06T04:21:13;22.90;;;14.50;;
12774;SDS011;6451;42.630;23.382;2024-03-06T04:23:42;18.87;;;14.10;;
12774;SDS011;6451;42.630;23.382;2024-03-06T04:26:10;19.47;;;13.73;;
12774;SDS011;6451;42.630;23.382;2024-03-06T04:28:37;22.90;;;14.33;;
12774;SDS011;6451;42.630;23.382;2024-03-06T04:31:04;20.30;;;13.87;;
12774;SDS011;6451;42.630;23.382;2024-03-06T04:33:32;20.93;;;14.03;;
12774;SDS011;6451;42.630;23.382;2024-03-06T04:36:00;20.60;;;14.00;;
12774;SDS011;6451;42.630;23.382;2024-03-06T04:38:30;22.07;;;14.30;;
12774;SDS011;6451;42.630;23.382;2024-03-06T04:41:01;26.43;;;15.27;;
12774;SDS011;6451;42.630;23.382;2024-03-06T04:43:29;24.17;;;16.57;;
12774;SDS011;6451;42.630;23.382;2024-03-06T04:45:56;19.80;;;13.73;;
12774;SDS011;6451;42.630;23.382;2024-03-06T04:48:25;20.70;;;13.70;;
12774;SDS011;6451;42.630;23.382;2024-03-06T04:50:54;18.70;;;14.23;;
12774;SDS011;6451;42.630;23.382;2024-03-06T04:53:21;25.47;;;16.20;;
12774;SDS011;6451;42.630;23.382;2024-03-06T04:55:52;27.10;;;15.80;;
12774;SDS011;6451;42.630;23.382;2024-03-06T04:58:34;21.80;;;15.00;;
12774;SDS011;6451;42.630;23.382;2024-03-06T05:01:00;21.40;;;15.00;;
12774;SDS011;6451;42.630;23.382;2024-03-06T05:03:28;25.07;;;16.17;;
12774;SDS011;6451;42.630;23.382;2024-03-06T05:05:55;21.97;;;15.00;;
12774;SDS011;6451;42.630;23.382;2024-03-06T05:08:22;18.87;;;14.50;;
12774;SDS011;6451;42.630;23.382;2024-03-06T05:10:52;22.07;;;14.13;;
12774;SDS011;6451;42.630;23.382;2024-03-06T05:13:22;23.73;;;15.43;;
12774;SDS011;6451;42.630;23.382;2024-03-06T05:15:50;30.80;;;15.50;;
12774;SDS011;6451;42.630;23.382;2024-03-06T05:18:19;22.63;;;14.70;;
12774;SDS011;6451;42.630;23.382;2024-03-06T05:20:46;22.80;;;15.33;;
12774;SDS011;6451;42.630;23.382;2024-03-06T05:23:15;27.53;;;16.13;;
12774;SDS011;6451;42.630;23.382;2024-03-06T05:25:42;26.97;;;17.07;;
12774;SDS011;6451;42.630;23.382;2024-03-06T05:28:10;30.97;;;16.93;;
12774;SDS011;6451;42.630;23.382;2024-03-06T05:30:38;22.63;;;16.53;;
12774;SDS011;6451;42.630;23.382;2024-03-06T05:33:06;30.57;;;18.23;;
12774;SDS011;6451;42.630;23.382;2024-03-06T05:35:35;23.60;;;17.13;;
12774;SDS011;6451;42.630;23.382;2024-03-06T05:38:04;27.40;;;16.90;;
12774;SDS011;6451;42.630;23.382;2024-03-06T05:40:32;23.30;;;16.63;;
12774;SDS011;6451;42.630;23.382;2024-03-06T05:43:02;22.40;;;16.43;;
12774;SDS011;6451;42.630;23.382;2024-03-06T05:45:30;22.57;;;15.13;;
12774;SDS011;6451;42.630;23.382;2024-03-06T05:47:57;20.47;;;14.63;;
12774;SDS011;6451;42.630;23.382;2024-03-06T05:50:26;21.03;;;13.87;;
12774;SDS011;6451;42.630;23.382;2024-03-06T05:52:54;20.10;;;14.30;;
12774;SDS011;6451;42.630;23.382;2024-03-06T05:55:20;16.90;;;13.40;;
12774;SDS011;6451;42.630;23.382;2024-03-06T05:57:47;21.40;;;14.33;;
12774;SDS011;6451;42.630;23.382;2024-03-06T06:00:16;21.07;;;14.10;;
12774;SDS011;6451;42.630;23.382;2024-03-06T06:02:47;20.50;;;14.17;;
12774;SDS011;6451;42.630;23.382;2024-03-06T06:05:14;16.47;;;12.80;;
12774;SDS011;6451;42.630;23.382;2024-03-06T06:07:46;19.90;;;12.30;;
12774;SDS011;6451;42.630;23.382;2024-03-06T06:10:13;17.43;;;13.37;;
12774;SDS011;6451;42.630;23.382;2024-03-06T06:12:40;20.00;;;12.00;;
12774;SDS011;6451;42.630;23.382;2024-03-06T06:15:08;17.20;;;11.93;;
12774;SDS011;6451;42.630;23.382;2024-03-06T06:17:37;18.50;;;11.50;;
12774;SDS011;6451;42.630;23.382;2024-03-06T06:20:08;17.57;;;11.67;;
12774;SDS011;6451;42.630;23.382;2024-03-06T06:22:39;18.30;;;12.37;;
12774;SDS011;6451;42.630;23.382;2024-03-06T06:25:11;14.80;;;11.73;;
12774;SDS011;6451;42.630;23.382;2024-03-06T06:27:38;18.17;;;12.37;;
12774;SDS011;6451;42.630;23.382;2024-03-06T06:30:06;17.50;;;11.67;;
12774;SDS011;6451;42.630;23.382;2024-03-06T06:32:43;18.83;;;12.57;;
12774;SDS011;6451;42.630;23.382;2024-03-06T06:35:11;16.47;;;12.57;;
12774;SDS011;6451;42.630;23.382;2024-03-06T06:37:39;17.70;;;12.37;;
12774;SDS011;6451;42.630;23.382;2024-03-06T06:42:53;13.50;;;10.30;;
12774;SDS011;6451;42.630;23.382;2024-03-06T06:45:21;14.20;;;10.33;;
12774;SDS011;6451;42.630;23.382;2024-03-06T06:47:48;15.17;;;11.03;;
12774;SDS011;6451;42.630;23.382;2024-03-06T06:50:16;15.20;;;10.17;;
12774;SDS011;6451;42.630;23.382;2024-03-06T06:52:46;14.83;;;10.30;;
12774;SDS011;6451;42.630;23.382;2024-03-06T06:55:18;13.90;;;9.67;;
12774;SDS011;6451;42.630;23.382;2024-03-06T06:57:49;12.63;;;10.03;;
12774;SDS011;6451;42.630;23.382;2024-03-06T07:00:18;18.93;;;11.87;;
12774;SDS011;6451;42.630;23.382;2024-03-06T07:02:49;26.63;;;18.40;;
12774;SDS011;6451;42.630;23.382;2024-03-06T07:05:17;29.63;;;21.93;;
12774;SDS011;6451;42.630;23.382;2024-03-06T07:07:44;32.70;;;22.67;;
12774;SDS011;6451;42.630;23.382;2024-03-06T07:10:12;32.50;;;21.97;;
12774;SDS011;6451;42.630;23.382;2024-03-06T07:12:39;32.00;;;22.47;;
12774;SDS011;6451;42.630;23.382;2024-03-06T07:15:10;31.80;;;23.17;;
12774;SDS011;6451;42.630;23.382;2024-03-06T07:17:37;32.87;;;21.70;;
12774;SDS011;6451;42.630;23.382;2024-03-06T07:20:06;32.40;;;22.87;;
12774;SDS011;6451;42.630;23.382;2024-03-06T07:22:36;32.03;;;21.80;;
12774;SDS011;6451;42.630;23.382;2024-03-06T07:25:05;31.07;;;21.37;;
12774;SDS011;6451;42.630;23.382;2024-03-06T07:27:32;30.70;;;20.90;;
12774;SDS011;6451;42.630;23.382;2024-03-06T07:29:59;27.53;;;21.27;;
12774;SDS011;6451;42.630;23.382;2024-03-06T07:32:28;25.43;;;20.23;;
12774;SDS011;6451;42.630;23.382;2024-03-06T07:34:58;28.10;;;20.50;;
12774;SDS011;6451;42.630;23.382;2024-03-06T07:37:25;31.03;;;20.83;;
12774;SDS011;6451;42.630;23.382;2024-03-06T07:39:52;28.87;;;21.30;;
12774;SDS011;6451;42.630;23.382;2024-03-06T07:42:20;31.10;;;21.70;;
12774;SDS011;6451;42.630;23.382;2024-03-06T07:44:47;27.30;;;21.13;;
12774;SDS011;6451;42.630;23.382;2024-03-06T07:47:18;31.60;;;20.97;;
12774;SDS011;6451;42.630;23.382;2024-03-06T07:49:49;25.30;;;20.13;;
12774;SDS011;6451;42.630;23.382;2024-03-06T07:52:17;27.03;;;20.47;;
12774;SDS011;6451;42.630;23.382;2024-03-06T07:54:45;29.03;;;21.40;;
12774;SDS011;6451;42.630;23.382;2024-03-06T07:57:15;26.27;;;20.50;;
12774;SDS011;6451;42.630;23.382;2024-03-06T07:59:43;27.90;;;20.60;;
12774;SDS011;6451;42.630;23.382;2024-03-06T08:02:10;24.83;;;19.30;;
12774;SDS011;6451;42.630;23.382;2024-03-06T08:04:37;26.53;;;20.03;;
12774;SDS011;6451;42.630;23.382;2024-03-06T08:07:07;24.97;;;19.57;;
12774;SDS011;6451;42.630;23.382;2024-03-06T08:09:34;28.57;;;19.63;;
12774;SDS011;6451;42.630;23.382;2024-03-06T08:12:03;27.53;;;20.77;;
12774;SDS011;6451;42.630;23.382;2024-03-06T08:14:30;27.53;;;21.03;;
12774;SDS011;6451;42.630;23.382;2024-03-06T08:16:57;29.30;;;19.63;;
12774;SDS011;6451;42.630;23.382;2024-03-06T08:19:24;28.07;;;19.97;;
12774;SDS011;6451;42.630;23.382;2024-03-06T08:21:51;25.87;;;19.40;;
12774;SDS011;6451;42.630;23.382;2024-03-06T08:24:25;24.33;;;19.63;;
12774;SDS011;6451;42.630;23.382;2024-03-06T08:26:53;26.00;;;18.97;;
12774;SDS011;6451;42.630;23.382;2024-03-06T08:29:20;26.20;;;18.93;;
12774;SDS011;6451;42.630;23.382;2024-03-06T08:31:47;26.63;;;19.33;;
12774;SDS011;6451;42.630;23.382;2024-03-06T08:34:14;25.77;;;18.50;;
12774;SDS011;6451;42.630;23.382;2024-03-06T08:36:43;25.43;;;18.27;;
12774;SDS011;6451;42.630;23.382;2024-03-06T08:39:11;27.07;;;19.40;;
12774;SDS011;6451;42.630;23.382;2024-03-06T08:41:43;24.63;;;18.10;;
12774;SDS011;6451;42.630;23.382;2024-03-06T08:44:10;23.77;;;18.37;;
12774;SDS011;6451;42.630;23.382;2024-03-06T08:46:35;26.43;;;17.47;;
12774;SDS011;6451;42.630;23.382;2024-03-06T08:49:12;20.57;;;15.80;;
12774;SDS011;6451;42.630;23.382;2024-03-06T08:51:40;19.93;;;15.50;;
12774;SDS011;6451;42.630;23.382;2024-03-06T08:54:11;21.43;;;15.53;;
12774;SDS011;6451;42.630;23.382;2024-03-06T08:56:37;20.97;;;15.40;;
12774;SDS011;6451;42.630;23.382;2024-03-06T08:59:10;25.07;;;16.50;;
12774;SDS011;6451;42.630;23.382;2024-03-06T09:01:38;19.20;;;15.30;;
12774;SDS011;6451;42.630;23.382;2024-03-06T09:04:05;21.53;;;15.47;;
12774;SDS011;6451;42.630;23.382;2024-03-06T09:06:34;19.47;;;15.77;;
12774;SDS011;6451;42.630;23.382;2024-03-06T09:09:02;25.20;;;16.20;;
12774;SDS011;6451;42.630;23.382;2024-03-06T09:11:30;20.87;;;15.53;;
12774;SDS011;6451;42.630;23.382;2024-03-06T09:13:59;23.60;;;17.10;;
12774;SDS011;6451;42.630;23.382;2024-03-06T09:16:31;21.07;;;14.50;;
12774;SDS011;6451;42.630;23.382;2024-03-06T09:18:57;22.03;;;16.17;;
12774;SDS011;6451;42.630;23.382;2024-03-06T09:21:24;25.07;;;17.20;;
12774;SDS011;6451;42.630;23.382;2024-03-06T09:23:51;27.27;;;18.90;;
12774;SDS011;6451;42.630;23.382;2024-03-06T09:26:21;25.50;;;19.00;;
12774;SDS011;6451;42.630;23.382;2024-03-06T09:28:48;25.87;;;19.13;;
12774;SDS011;6451;42.630;23.382;2024-03-06T09:31:16;26.23;;;18.33;;
12774;SDS011;6451;42.630;23.382;2024-03-06T09:33:46;25.70;;;17.93;;
12774;SDS011;6451;42.630;23.382;2024-03-06T09:36:13;25.93;;;16.63;;
12774;SDS011;6451;42.630;23.382;2024-03-06T09:38:43;25.30;;;17.17;;
12774;SDS011;6451;42.630;23.382;2024-03-06T09:41:12;23.07;;;16.17;;
12774;SDS011;6451;42.630;23.382;2024-03-06T09:43:40;23.30;;;15.00;;
12774;SDS011;6451;42.630;23.382;2024-03-06T09:46:07;20.20;;;14.90;;
12774;SDS011;6451;42.630;23.382;2024-03-06T09:48:34;19.17;;;14.23;;
12774;SDS011;6451;42.630;23.382;2024-03-06T09:51:09;19.17;;;13.97;;
12774;SDS011;6451;42.630;23.382;2024-03-06T09:53:37;21.80;;;13.70;;
12774;SDS011;6451;42.630;23.382;2024-03-06T09:56:05;22.87;;;14.13;;
12774;SDS011;6451;42.630;23.382;2024-03-06T09:58:34;19.77;;;13.80;;
12774;SDS011;6451;42.630;23.382;2024-03-06T10:01:01;17.90;;;12.07;;
12774;SDS011;6451;42.630;23.382;2024-03-06T10:03:32;15.67;;;11.17;;
12774;SDS011;6451;42.630;23.382;2024-03-06T10:05:59;16.53;;;11.80;;
12774;SDS011;6451;42.630;23.382;2024-03-06T10:08:34;14.53;;;11.10;;
12774;SDS011;6451;42.630;23.382;2024-03-06T10:11:03;16.33;;;11.80;;
12774;SDS011;6451;42.630;23.382;2024-03-06T10:13:34;16.93;;;11.83;;
12774;SDS011;6451;42.630;23.382;2024-03-06T10:16:02;16.87;;;11.50;;
12774;SDS011;6451;42.630;23.382;2024-03-06T10:18:33;16.60;;;13.30;;
12774;SDS011;6451;42.630;23.382;2024-03-06T10:21:02;18.63;;;12.47;;
12774;SDS011;6451;42.630;23.382;2024-03-06T10:23:33;17.73;;;12.10;;
12774;SDS011;6451;42.630;23.382;2024-03-06T10:26:02;19.33;;;12.27;;
12774;SDS011;6451;42.630;23.382;2024-03-06T10:28:33;17.87;;;12.27;;
12774;SDS011;6451;42.630;23.382;2024-03-06T10:31:03;18.85;;;12.52;;
12774;SDS011;6451;42.630;23.382;2024-03-06T10:33:33;21.95;;;12.40;;
12774;SDS011;6451;42.630;23.382;2024-03-06T10:36:05;17.25;;;11.68;;
12774;SDS011;6451;42.630;23.382;2024-03-06T10:38:39;16.00;;;11.07;;
12774;SDS011;6451;42.630;23.382;2024-03-06T10:41:10;16.52;;;11.77;;
12774;SDS011;6451;42.630;23.382;2024-03-06T10:43:41;15.75;;;10.85;;
12774;SDS011;6451;42.630;23.382;2024-03-06T10:46:15;16.23;;;10.25;;
12774;SDS011;6451;42.630;23.382;2024-03-06T10:48:46;13.32;;;10.18;;
12774;SDS011;6451;42.630;23.382;2024-03-06T10:51:17;13.88;;;8.95;;
12774;SDS011;6451;42.630;23.382;2024-03-06T10:53:47;16.38;;;9.43;;
12774;SDS011;6451;42.630;23.382;2024-03-06T10:56:16;11.32;;;8.65;;
12774;SDS011;6451;42.630;23.382;2024-03-06T10:58:45;12.70;;;9.32;;
12774;SDS011;6451;42.630;23.382;2024-03-06T11:01:16;11.07;;;8.23;;
12774;SDS011;6451;42.630;23.382;2024-03-06T11:03:44;14.65;;;8.80;;
12774;SDS011;6451;42.630;23.382;2024-03-06T11:06:13;10.57;;;8.38;;
12774;SDS011;6451;42.630;23.382;2024-03-06T11:08:40;10.30;;;7.45;;
12774;SDS011;6451;42.630;23.382;2024-03-06T11:11:22;11.70;;;8.68;;
12774;SDS011;6451;42.630;23.382;2024-03-06T11:13:50;11.93;;;8.38;;
12774;SDS011;6451;42.630;23.382;2024-03-06T11:16:18;13.38;;;7.80;;
12774;SDS011;6451;42.630;23.382;2024-03-06T11:18:45;12.88;;;7.47;;
12774;SDS011;6451;42.630;23.382;2024-03-06T11:21:29;9.38;;;6.72;;
12774;SDS011;6451;42.630;23.382;2024-03-06T11:26:47;9.07;;;7.30;;
12774;SDS011;6451;42.630;23.382;2024-03-06T11:29:16;11.40;;;7.40;;
12774;SDS011;6451;42.630;23.382;2024-03-06T11:32:04;9.27;;;7.60;;
12774;SDS011;6451;42.630;23.382;2024-03-06T11:34:34;9.68;;;7.35;;
12774;SDS011;6451;42.630;23.382;2024-03-06T11:37:05;8.57;;;6.60;;
12774;SDS011;6451;42.630;23.382;2024-03-06T11:39:37;9.82;;;6.95;;
12774;SDS011;6451;42.630;23.382;2024-03-06T11:42:10;9.07;;;7.50;;
12774;SDS011;6451;42.630;23.382;2024-03-06T11:44:52;10.43;;;7.97;;
12774;SDS011;6451;42.630;23.382;2024-03-06T11:47:21;10.40;;;7.57;;
12774;SDS011;6451;42.630;23.382;2024-03-06T11:49:48;9.07;;;6.90;;
12774;SDS011;6451;42.630;23.382;2024-03-06T11:52:16;14.25;;;7.35;;
12774;SDS011;6451;42.630;23.382;2024-03-06T11:54:44;10.38;;;7.32;;
12774;SDS011;6451;42.630;23.382;2024-03-06T11:57:17;9.85;;;6.28;;
12774;SDS011;6451;42.630;23.382;2024-03-06T11:59:47;10.73;;;7.30;;
12774;SDS011;6451;42.630;23.382;2024-03-06T12:02:18;10.63;;;7.75;;
12774;SDS011;6451;42.630;23.382;2024-03-06T12:04:46;10.00;;;7.55;;
12774;SDS011;6451;42.630;23.382;2024-03-06T12:07:14;10.70;;;7.20;;
12774;SDS011;6451;42.630;23.382;2024-03-06T12:09:43;10.05;;;7.50;;
12774;SDS011;6451;42.630;23.382;2024-03-06T12:12:10;12.02;;;7.50;;
12774;SDS011;6451;42.630;23.382;2024-03-06T12:14:38;10.57;;;7.28;;
12774;SDS011;6451;42.630;23.382;2024-03-06T12:17:06;13.35;;;7.57;;
12774;SDS011;6451;42.630;23.382;2024-03-06T12:19:41;11.02;;;6.88;;
12774;SDS011;6451;42.630;23.382;2024-03-06T12:22:11;14.73;;;7.38;;
12774;SDS011;6451;42.630;23.382;2024-03-06T12:24:39;7.63;;;6.63;;
12774;SDS011;6451;42.630;23.382;2024-03-06T12:27:14;11.40;;;6.90;;
12774;SDS011;6451;42.630;23.382;2024-03-06T12:29:53;9.30;;;6.85;;
12774;SDS011;6451;42.630;23.382;2024-03-06T12:32:25;11.00;;;7.05;;
12774;SDS011;6451;42.630;23.382;2024-03-06T12:34:58;9.07;;;7.10;;
12774;SDS011;6451;42.630;23.382;2024-03-06T12:37:42;13.15;;;6.80;;
12774;SDS011;6451;42.630;23.382;2024-03-06T12:40:09;9.35;;;6.45;;
12774;SDS011;6451;42.630;23.382;2024-03-06T12:42:39;10.60;;;7.43;;
12774;SDS011;6451;42.630;23.382;2024-03-06T12:45:09;10.18;;;7.85;;
12774;SDS011;6451;42.630;23.382;2024-03-06T12:47:37;11.23;;;7.60;;
12774;SDS011;6451;42.630;23.382;2024-03-06T12:50:04;9.70;;;7.45;;
12774;SDS011;6451;42.630;23.382;2024-03-06T12:52:33;8.77;;;7.15;;
12774;SDS011;6451;42.630;23.382;2024-03-06T12:55:00;13.45;;;7.20;;
12774;SDS011;6451;42.630;23.382;2024-03-06T12:57:30;8.57;;;6.13;;
12774;SDS011;6451;42.630;23.382;2024-03-06T12:59:58;9.35;;;5.60;;
12774;SDS011;6451;42.630;23.382;2024-03-06T13:02:27;9.82;;;5.95;;
12774;SDS011;6451;42.630;23.382;2024-03-06T13:04:54;8.95;;;6.00;;
12774;SDS011;6451;42.630;23.382;2024-03-06T13:07:22;8.15;;;5.95;;
12774;SDS011;6451;42.630;23.382;2024-03-06T13:09:52;12.25;;;5.95;;
12774;SDS011;6451;42.630;23.382;2024-03-06T13:12:20;10.52;;;6.50;;
12774;SDS011;6451;42.630;23.382;2024-03-06T13:14:47;12.63;;;6.10;;
12774;SDS011;6451;42.630;23.382;2024-03-06T13:17:14;9.40;;;5.80;;
12774;SDS011;6451;42.630;23.382;2024-03-06T13:19:44;14.60;;;6.00;;
12774;SDS011;6451;42.630;23.382;2024-03-06T13:22:11;7.72;;;6.25;;
12774;SDS011;6451;42.630;23.382;2024-03-06T13:24:38;10.77;;;5.53;;
12774;SDS011;6451;42.630;23.382;2024-03-06T13:27:05;9.80;;;6.20;;
12774;SDS011;6451;42.630;23.382;2024-03-06T13:29:33;7.97;;;6.03;;
12774;SDS011;6451;42.630;23.382;2024-03-06T13:32:00;8.27;;;5.25;;
12774;SDS011;6451;42.630;23.382;2024-03-06T13:34:27;10.85;;;4.97;;
12774;SDS011;6451;42.630;23.382;2024-03-06T13:36:58;8.30;;;5.25;;
12774;SDS011;6451;42.630;23.382;2024-03-06T13:39:25;5.63;;;5.03;;
12774;SDS011;6451;42.630;23.382;2024-03-06T13:41:54;8.32;;;5.40;;
12774;SDS011;6451;42.630;23.382;2024-03-06T13:44:21;8.40;;;4.97;;
12774;SDS011;6451;42.630;23.382;2024-03-06T13:46:49;8.35;;;5.40;;
12774;SDS011;6451;42.630;23.382;2024-03-06T13:49:35;6.60;;;5.20;;
12774;SDS011;6451;42.630;23.382;2024-03-06T13:52:05;6.65;;;4.85;;
12774;SDS011;6451;42.630;23.382;2024-03-06T13:54:35;8.27;;;5.00;;
12774;SDS011;6451;42.630;23.382;2024-03-06T13:57:02;6.55;;;5.00;;
12774;SDS011;6451;42.630;23.382;2024-03-06T13:59:30;7.38;;;5.38;;
12774;SDS011;6451;42.630;23.382;2024-03-06T14:01:59;7.78;;;5.13;;
12774;SDS011;6451;42.630;23.382;2024-03-06T14:04:28;6.88;;;5.07;;
12774;SDS011;6451;42.630;23.382;2024-03-06T14:06:55;8.10;;;5.15;;
12774;SDS011;6451;42.630;23.382;2024-03-06T14:09:25;10.82;;;5.32;;
12774;SDS011;6451;42.630;23.382;2024-03-06T14:11:53;8.98;;;5.40;;
12774;SDS011;6451;42.630;23.382;2024-03-06T14:14:21;8.63;;;5.25;;
12774;SDS011;6451;42.630;23.382;2024-03-06T14:16:48;9.27;;;5.13;;
12774;SDS011;6451;42.630;23.382;2024-03-06T14:19:16;7.65;;;4.90;;
12774;SDS011;6451;42.630;23.382;2024-03-06T14:21:49;10.50;;;6.10;;
12774;SDS011;6451;42.630;23.382;2024-03-06T14:24:16;7.13;;;5.50;;
12774;SDS011;6451;42.630;23.382;2024-03-06T14:26:47;9.73;;;5.45;;
12774;SDS011;6451;42.630;23.382;2024-03-06T14:29:14;11.90;;;5.50;;
12774;SDS011;6451;42.630;23.382;2024-03-06T14:31:42;9.82;;;5.35;;
12774;SDS011;6451;42.630;23.382;2024-03-06T14:34:09;8.43;;;5.93;;
12774;SDS011;6451;42.630;23.382;2024-03-06T14:36:36;8.30;;;5.72;;
12774;SDS011;6451;42.630;23.382;2024-03-06T14:39:08;9.43;;;5.25;;
12774;SDS011;6451;42.630;23.382;2024-03-06T14:41:39;6.97;;;5.50;;